createdAt,value
2018-09-06T00:14:55.358Z,12.40
2018-09-06T00:35:35.547Z,13.53
2018-09-06T00:56:16.962Z,13.27
2018-09-06T01:17:00.222Z,12.13
2018-09-06T01:37:37.338Z,12.43
2018-09-06T01:58:16.299Z,13.00
2018-09-06T02:18:58.022Z,12.10
2018-09-06T02:39:41.284Z,12.43
2018-09-06T03:00:24.851Z,13.70
2018-09-06T03:21:06.879Z,12.60
2018-09-06T03:41:48.299Z,12.30
2018-09-06T04:02:27.564Z,12.80
2018-09-06T04:23:07.749Z,13.60
2018-09-06T04:43:47.053Z,13.40
2018-09-06T05:04:29.425Z,12.60
2018-09-06T05:25:12.614Z,13.10
2018-09-06T05:45:59.872Z,15.10
2018-09-06T06:06:42.209Z,14.40
2018-09-06T06:27:20.566Z,14.10
2018-09-06T06:48:03.816Z,16.60
2018-09-06T07:08:42.156Z,13.43
2018-09-06T07:29:23.578Z,15.23
2018-09-06T07:49:59.970Z,19.80
2018-09-06T08:10:39.306Z,27.93
2018-09-06T08:31:19.284Z,27.67
2018-09-06T08:52:03.839Z,24.40
2018-09-06T09:12:43.901Z,19.60
2018-09-06T09:33:25.007Z,15.27
2018-09-06T09:54:04.272Z,13.33
2018-09-06T10:14:46.612Z,13.60
2018-09-06T10:35:32.086Z,13.13
2018-09-06T10:56:14.657Z,12.20
2018-09-06T11:16:56.865Z,9.70
2018-09-06T11:37:36.242Z,8.40
2018-09-06T11:58:19.227Z,11.83
2018-09-06T12:18:58.491Z,13.03
2018-09-06T12:39:39.908Z,15.30
2018-09-06T13:00:17.020Z,16.87
2018-09-06T13:20:58.442Z,19.07
2018-09-06T13:41:42.621Z,18.20
2018-09-06T14:02:28.958Z,22.40
2018-09-06T14:23:11.292Z,20.70
2018-09-06T14:43:52.803Z,19.43
2018-09-06T15:04:32.897Z,12.60
2018-09-06T15:25:16.770Z,8.50
2018-09-06T15:45:59.418Z,10.67
2018-09-06T16:06:38.685Z,10.77
2018-09-06T16:27:17.949Z,11.00
2018-09-06T16:48:02.436Z,11.40
2018-09-06T17:08:41.712Z,9.37
2018-09-06T17:29:18.822Z,9.97
2018-09-06T17:50:01.160Z,17.27
2018-09-06T18:10:45.699Z,9.70
2018-09-06T18:31:26.985Z,6.70
2018-09-06T18:52:06.943Z,7.30
2018-09-06T19:12:42.216Z,8.43
2018-09-06T19:33:20.563Z,8.73
2018-09-06T19:54:01.031Z,9.00
2018-09-06T20:14:45.353Z,8.40
2018-09-06T20:35:22.355Z,7.60
2018-09-06T20:56:04.691Z,9.80
2018-09-06T21:16:44.883Z,8.70
2018-09-06T21:37:25.072Z,10.60
2018-09-06T21:58:06.489Z,10.80
2018-09-06T22:36:52.782Z,10.10
2018-09-06T22:57:40.129Z,16.10
2018-09-06T23:18:19.164Z,13.07
2018-09-06T23:39:02.426Z,12.80
2018-09-06T23:59:41.694Z,16.07
